createdAt,value
2019-04-11T00:00:23.551Z,93.50
2019-04-11T00:02:53.161Z,93.70
2019-04-11T00:05:21.643Z,93.70
2019-04-11T00:07:50.034Z,93.50
2019-04-11T00:10:18.894Z,93.40
2019-04-11T00:12:48.443Z,93.50
2019-04-11T00:15:18.125Z,93.70
2019-04-11T00:17:46.569Z,93.80
2019-04-11T00:20:15.856Z,93.80
2019-04-11T00:22:44.474Z,93.90
2019-04-11T00:25:33.683Z,94.00
2019-04-11T00:28:03.474Z,94.40
2019-04-11T00:30:32.342Z,94.10
2019-04-11T00:33:00.843Z,94.60
2019-04-11T00:35:29.239Z,94.30
2019-04-11T00:37:57.699Z,94.30
2019-04-11T00:40:26.976Z,94.30
2019-04-11T00:42:55.825Z,94.40
2019-04-11T00:45:24.459Z,94.40
2019-04-11T00:47:53.222Z,94.30
2019-04-11T00:50:21.750Z,94.30
2019-04-11T00:52:50.158Z,94.30
2019-04-11T00:55:19.563Z,94.30
2019-04-11T00:57:48.091Z,94.40
2019-04-11T01:00:16.758Z,94.50
2019-04-11T01:02:45.464Z,94.60
2019-04-11T01:05:15.047Z,94.60
2019-04-11T01:07:43.592Z,94.80
2019-04-11T01:10:12.206Z,94.90
2019-04-11T01:12:40.855Z,94.90
2019-04-11T01:15:13.350Z,95.10
2019-04-11T01:17:41.854Z,95.10
2019-04-11T01:20:11.229Z,95.20
2019-04-11T01:22:40.509Z,95.20
2019-04-11T01:25:10.369Z,95.20
2019-04-11T01:27:39.980Z,95.30
2019-04-11T01:30:13.744Z,95.40
2019-04-11T01:32:42.380Z,95.50
2019-04-11T01:35:10.937Z,95.60
2019-04-11T01:37:39.934Z,95.70
2019-04-11T01:40:09.713Z,95.70
2019-04-11T01:42:39.547Z,95.80
2019-04-11T01:45:09.520Z,96.00
2019-04-11T01:48:09.039Z,96.10
2019-04-11T01:50:37.567Z,96.10
2019-04-11T01:53:06.844Z,96.30
2019-04-11T01:55:35.355Z,96.30
2019-04-11T01:58:04.604Z,96.40
2019-04-11T02:00:44.102Z,96.50
2019-04-11T02:03:14.973Z,96.60
2019-04-11T02:05:43.507Z,96.80
2019-04-11T02:08:13.224Z,96.90
2019-04-11T02:10:41.807Z,97.20
2019-04-11T02:13:10.199Z,97.30
2019-04-11T02:15:38.765Z,97.40
2019-04-11T02:18:07.577Z,97.60
2019-04-11T02:20:36.926Z,97.80
2019-04-11T02:23:07.100Z,97.90
2019-04-11T02:25:49.423Z,98.00
2019-04-11T02:28:20.258Z,98.20
2019-04-11T02:30:55.717Z,98.20
2019-04-11T02:33:26.174Z,98.40
2019-04-11T02:35:54.435Z,98.50
2019-04-11T02:38:24.425Z,98.60
2019-04-11T02:40:54.865Z,98.60
2019-04-11T02:43:25.177Z,98.60
2019-04-11T02:46:08.964Z,99.00
2019-04-11T02:48:24.584Z,98.70
2019-04-11T02:50:54.231Z,98.80
2019-04-11T02:53:24.515Z,98.90
2019-04-11T02:55:54.179Z,98.70
2019-04-11T02:58:23.237Z,98.80
2019-04-11T03:00:55.328Z,98.90
2019-04-11T03:03:23.432Z,99.00
2019-04-11T03:05:53.361Z,99.20
2019-04-11T03:08:22.720Z,99.40
2019-04-11T03:10:53.544Z,99.60
2019-04-11T03:13:23.325Z,99.90
2019-04-11T03:16:06.953Z,99.90
2019-04-11T03:18:40.955Z,99.90
2019-04-11T03:20:57.714Z,99.90
2019-04-11T03:23:25.182Z,99.90
2019-04-11T03:25:56.498Z,99.90
2019-04-11T03:28:28.265Z,99.90
2019-04-11T03:31:59.031Z,99.90
2019-04-11T03:39:08.413Z,99.90
2019-04-11T03:41:34.129Z,99.90
2019-04-11T03:43:58.290Z,99.90
2019-04-11T03:46:33.911Z,99.90
2019-04-11T03:48:59.940Z,99.90
2019-04-11T03:51:18.754Z,99.90
2019-04-11T03:53:49.063Z,99.90
2019-04-11T03:56:19.571Z,99.90
2019-04-11T03:58:48.218Z,99.90
2019-04-11T04:01:20.427Z,99.90
2019-04-11T04:03:49.008Z,99.90
2019-04-11T04:06:19.156Z,99.90
2019-04-11T04:08:48.759Z,99.90
2019-04-11T04:11:27.046Z,99.90
2019-04-11T04:14:01.417Z,99.90
2019-04-11T04:16:39.837Z,99.90
2019-04-11T04:22:08.820Z,99.90
2019-04-11T04:24:40.519Z,99.90
2019-04-11T04:27:09.914Z,99.90
2019-04-11T04:29:38.709Z,99.90
2019-04-11T04:32:08.339Z,99.90
2019-04-11T04:34:37.312Z,99.90
2019-04-11T04:37:07.734Z,99.90
2019-04-11T04:39:36.967Z,99.90
2019-04-11T04:42:17.420Z,99.90
2019-04-11T04:44:38.016Z,99.90
2019-04-11T04:47:19.420Z,99.90
2019-04-11T04:49:38.642Z,99.90
2019-04-11T04:52:09.407Z,99.90
2019-04-11T04:54:38.514Z,99.90
2019-04-11T04:57:08.846Z,99.90
2019-04-11T04:59:38.419Z,99.90
2019-04-11T05:02:08.816Z,99.90
2019-04-11T05:04:38.296Z,99.90
2019-04-11T05:07:09.398Z,99.90
2019-04-11T05:09:38.397Z,99.90
2019-04-11T05:12:07.287Z,99.90
2019-04-11T05:14:37.238Z,99.90
2019-04-11T05:17:06.734Z,99.90
2019-04-11T05:19:35.266Z,99.90
2019-04-11T05:22:03.658Z,99.90
2019-04-11T05:24:32.107Z,99.90
2019-04-11T05:27:00.484Z,99.90
2019-04-11T05:29:29.236Z,99.90
2019-04-11T05:31:58.845Z,99.90
2019-04-11T05:34:28.033Z,99.90
2019-04-11T05:36:57.611Z,99.90
2019-04-11T05:39:26.101Z,99.90
2019-04-11T05:41:54.575Z,99.70
2019-04-11T05:44:22.975Z,99.50
2019-04-11T05:46:56.263Z,99.40
2019-04-11T05:49:23.515Z,99.50
2019-04-11T05:51:58.643Z,99.40
2019-04-11T05:54:28.087Z,99.30
2019-04-11T05:56:59.534Z,98.80
2019-04-11T05:59:29.198Z,98.90
2019-04-11T06:02:04.389Z,98.70
2019-04-11T06:04:37.284Z,98.70
2019-04-11T06:07:23.619Z,98.60
2019-04-11T06:09:54.605Z,98.40
2019-04-11T06:12:33.865Z,99.20
2019-04-11T06:15:04.051Z,99.70
2019-04-11T06:17:32.443Z,98.00
2019-04-11T06:20:08.837Z,98.30
2019-04-11T06:22:40.084Z,97.60
2019-04-11T06:25:28.171Z,97.50
2019-04-11T06:28:02.027Z,97.30
2019-04-11T06:30:48.542Z,97.20
2019-04-11T06:33:18.678Z,96.80
2019-04-11T06:36:04.862Z,96.70
2019-04-11T06:38:41.081Z,96.80
2019-04-11T06:41:11.131Z,96.50
2019-04-11T06:43:42.484Z,96.30
2019-04-11T06:46:21.471Z,96.10
2019-04-11T06:48:58.161Z,96.00
2019-04-11T06:51:37.799Z,96.10
2019-04-11T06:54:15.578Z,95.50
2019-04-11T06:56:45.863Z,95.20
2019-04-11T06:59:16.386Z,95.10
2019-04-11T07:01:46.047Z,95.40
2019-04-11T07:04:32.154Z,94.70
2019-04-11T07:07:02.398Z,94.40
2019-04-11T07:09:32.956Z,94.30
2019-04-11T07:12:03.521Z,93.80
2019-04-11T07:14:33.614Z,93.60
2019-04-11T07:17:20.957Z,93.40
2019-04-11T07:20:08.672Z,93.30
2019-04-11T07:22:55.343Z,93.10
2019-04-11T07:25:25.386Z,92.80
2019-04-11T07:28:11.922Z,92.70
2019-04-11T07:31:00.345Z,92.60
2019-04-11T07:33:31.225Z,92.70
2019-04-11T07:36:18.425Z,92.50
2019-04-11T07:39:00.265Z,91.80
2019-04-11T07:41:41.018Z,91.70
2019-04-11T07:44:17.617Z,91.50
2019-04-11T07:46:51.558Z,91.40
2019-04-11T07:49:35.041Z,91.20
2019-04-11T07:52:16.218Z,91.10
2019-04-11T07:54:45.641Z,91.20
2019-04-11T07:57:26.215Z,90.80
2019-04-11T08:00:03.805Z,90.30
2019-04-11T08:02:34.071Z,90.40
2019-04-11T08:05:06.740Z,90.10
2019-04-11T08:07:40.396Z,90.00
2019-04-11T08:10:10.721Z,89.70
2019-04-11T08:12:39.383Z,90.40
2019-04-11T08:15:21.919Z,90.40
2019-04-11T08:17:50.315Z,89.80
2019-04-11T08:20:33.221Z,89.90
2019-04-11T08:23:03.606Z,89.50
2019-04-11T08:25:37.602Z,89.20
2019-04-11T08:28:09.454Z,88.30
2019-04-11T08:30:57.254Z,88.80
2019-04-11T08:33:28.705Z,88.70
2019-04-11T08:36:17.769Z,87.80
2019-04-11T08:38:46.717Z,87.70
2019-04-11T08:41:35.886Z,88.20
2019-04-11T08:44:05.543Z,88.30
2019-04-11T08:46:35.711Z,88.10
2019-04-11T08:49:06.235Z,87.90
2019-04-11T08:51:37.072Z,86.70
2019-04-11T08:54:17.371Z,86.20
2019-04-11T08:56:45.875Z,86.50
2019-04-11T08:59:36.003Z,86.20
2019-04-11T09:02:06.692Z,86.10
2019-04-11T09:04:46.299Z,85.50
2019-04-11T09:07:17.010Z,85.30
2019-04-11T09:10:04.089Z,84.60
2019-04-11T09:12:32.662Z,85.60
2019-04-11T09:15:02.711Z,86.00
2019-04-11T09:17:36.654Z,86.00
2019-04-11T09:20:11.571Z,85.90
2019-04-11T09:22:44.939Z,86.30
2019-04-11T09:25:21.248Z,85.50
2019-04-11T09:28:06.531Z,86.30
2019-04-11T09:30:53.170Z,85.40
2019-04-11T09:33:39.753Z,85.30
2019-04-11T09:36:29.006Z,85.10
2019-04-11T09:39:04.596Z,84.00
2019-04-11T09:41:40.712Z,83.70
2019-04-11T09:44:10.814Z,84.20
2019-04-11T09:46:57.090Z,83.70
2019-04-11T09:49:27.194Z,84.10
2019-04-11T09:51:58.228Z,84.10
2019-04-11T09:54:35.129Z,83.90
2019-04-11T09:57:08.155Z,84.10
2019-04-11T09:59:56.059Z,84.00
2019-04-11T10:02:42.200Z,83.40
2019-04-11T10:05:13.682Z,82.70
2019-04-11T10:08:00.002Z,82.50
2019-04-11T10:10:33.207Z,86.10
2019-04-11T10:13:20.545Z,83.40
2019-04-11T10:16:07.537Z,85.30
2019-04-11T10:18:55.625Z,83.80
2019-04-11T10:21:28.990Z,86.00
2019-04-11T10:24:16.619Z,82.40
2019-04-11T10:26:45.999Z,83.10
2019-04-11T10:29:34.618Z,82.50
2019-04-11T10:32:03.299Z,81.20
2019-04-11T10:34:52.719Z,82.00
2019-04-11T10:37:21.726Z,81.60
2019-04-11T10:39:54.633Z,81.00
2019-04-11T10:42:24.687Z,80.40
2019-04-11T10:45:06.756Z,80.50
2019-04-11T10:47:37.071Z,78.70
2019-04-11T10:50:23.705Z,79.40
2019-04-11T10:52:55.000Z,79.00
2019-04-11T10:55:25.352Z,78.20
2019-04-11T10:58:04.819Z,78.20
2019-04-11T11:00:37.814Z,78.50
2019-04-11T11:03:08.075Z,78.70
2019-04-11T11:05:42.915Z,79.30
2019-04-11T11:08:15.776Z,79.40
2019-04-11T11:10:44.523Z,79.80
2019-04-11T11:13:21.659Z,78.60
2019-04-11T11:15:52.088Z,78.40
2019-04-11T11:19:02.042Z,78.60
2019-04-11T11:21:09.367Z,83.10
2019-04-11T11:23:56.899Z,77.80
2019-04-11T11:26:26.174Z,79.00
2019-04-11T11:28:57.613Z,77.70
2019-04-11T11:31:29.999Z,76.80
2019-04-11T11:33:58.813Z,75.80
2019-04-11T11:36:45.738Z,76.00
2019-04-11T11:39:22.705Z,74.80
2019-04-11T11:42:10.236Z,74.10
2019-04-11T11:44:43.139Z,73.70
2019-04-11T11:47:33.132Z,74.80
2019-04-11T11:50:04.426Z,74.60
2019-04-11T11:52:45.541Z,73.30
2019-04-11T11:55:16.149Z,72.30
2019-04-11T11:58:00.449Z,72.50
2019-04-11T12:00:30.293Z,72.80
2019-04-11T12:03:05.324Z,72.00
2019-04-11T12:05:39.098Z,71.10
2019-04-11T12:08:16.567Z,72.20
2019-04-11T12:10:46.940Z,69.30
2019-04-11T12:13:19.690Z,68.80
2019-04-11T12:15:53.257Z,68.60
2019-04-11T12:18:26.837Z,68.40
2019-04-11T12:20:59.024Z,68.00
2019-04-11T12:23:44.646Z,66.70
2019-04-11T12:26:03.893Z,66.90
2019-04-11T12:28:36.240Z,66.70
2019-04-11T12:31:09.276Z,65.00
2019-04-11T12:33:43.713Z,64.50
2019-04-11T12:36:14.684Z,65.40
2019-04-11T12:39:01.212Z,65.10
2019-04-11T12:41:41.791Z,63.70
2019-04-11T12:44:14.579Z,63.80
2019-04-11T12:46:56.656Z,62.80
2019-04-11T12:49:26.720Z,61.80
2019-04-11T12:52:15.620Z,61.10
2019-04-11T12:54:54.947Z,61.10
2019-04-11T12:57:41.360Z,61.00
2019-04-11T13:00:21.016Z,61.20
2019-04-11T13:02:53.726Z,61.90
2019-04-11T13:05:24.076Z,62.70
2019-04-11T13:08:10.527Z,61.40
2019-04-11T13:10:40.658Z,61.00
2019-04-11T13:13:16.748Z,61.40
2019-04-11T13:15:47.047Z,62.50
2019-04-11T13:18:33.750Z,63.10
2019-04-11T13:21:15.909Z,63.30
2019-04-11T13:23:48.938Z,62.00
2019-04-11T13:26:31.057Z,61.20
2019-04-11T13:29:16.461Z,60.80
2019-04-11T13:32:04.775Z,61.90
2019-04-11T13:34:34.827Z,60.80
2019-04-11T13:37:04.947Z,60.70
2019-04-11T13:39:34.181Z,59.20
2019-04-11T13:42:22.150Z,58.40
2019-04-11T13:44:50.555Z,58.40
2019-04-11T13:47:36.839Z,58.90
2019-04-11T13:50:16.297Z,58.20
2019-04-11T13:52:55.297Z,59.00
2019-04-11T13:55:24.046Z,57.90
2019-04-11T13:58:09.152Z,56.50
2019-04-11T14:00:39.347Z,57.30
2019-04-11T14:03:25.787Z,56.40
2019-04-11T14:05:56.410Z,56.20
2019-04-11T14:08:26.458Z,56.70
2019-04-11T14:11:02.382Z,57.00
2019-04-11T14:13:38.457Z,57.60
2019-04-11T14:16:14.115Z,57.90
2019-04-11T14:18:59.165Z,57.60
2019-04-11T14:21:28.279Z,57.20
2019-04-11T14:23:58.407Z,56.10
2019-04-11T14:26:34.651Z,54.80
2019-04-11T14:29:04.690Z,54.50
2019-04-11T14:31:34.848Z,54.70
2019-04-11T14:34:07.687Z,54.80
2019-04-11T14:36:49.763Z,53.90
2019-04-11T14:39:25.599Z,53.10
2019-04-11T14:42:04.241Z,52.60
2019-04-11T14:44:37.094Z,51.90
2019-04-11T14:47:23.766Z,51.30
2019-04-11T14:49:53.812Z,52.00
2019-04-11T14:52:40.116Z,51.60
2019-04-11T14:55:08.770Z,51.40
2019-04-11T14:57:46.745Z,50.60
2019-04-11T15:00:19.500Z,49.80
2019-04-11T15:02:52.232Z,49.90
2019-04-11T15:05:28.039Z,50.20
2019-04-11T15:07:56.528Z,50.30
2019-04-11T15:10:36.531Z,49.80
2019-04-11T15:13:05.994Z,49.30
2019-04-11T15:15:48.126Z,48.10
2019-04-11T15:18:17.495Z,48.00
2019-04-11T15:20:55.209Z,47.30
2019-04-11T15:23:31.043Z,47.30
2019-04-11T15:26:19.454Z,46.40
2019-04-11T15:28:52.201Z,46.20
2019-04-11T15:31:38.766Z,46.60
2019-04-11T15:34:16.131Z,47.30
2019-04-11T15:36:52.395Z,47.60
2019-04-11T15:39:44.278Z,47.30
2019-04-11T15:42:10.659Z,47.40
2019-04-11T15:44:49.517Z,47.50
2019-04-11T15:47:19.694Z,47.50
2019-04-11T15:50:05.999Z,47.30
2019-04-11T15:52:34.687Z,47.30
2019-04-11T15:55:07.725Z,47.60
2019-04-11T15:57:38.458Z,48.00
2019-04-11T16:00:18.339Z,48.20
2019-04-11T16:02:57.331Z,48.00
2019-04-11T16:05:43.847Z,47.50
2019-04-11T16:08:29.216Z,47.30
2019-04-11T16:10:59.254Z,47.30
2019-04-11T16:13:29.311Z,47.50
2019-04-11T16:16:06.538Z,47.40
2019-04-11T16:18:31.173Z,47.70
2019-04-11T16:21:18.349Z,48.30
2019-04-11T16:23:42.254Z,49.00
2019-04-11T16:26:12.323Z,49.20
2019-04-11T16:28:59.106Z,49.20
2019-04-11T16:31:29.300Z,49.50
2019-04-11T16:33:59.343Z,49.60
2019-04-11T16:36:29.545Z,49.60
2019-04-11T16:39:02.556Z,49.70
2019-04-11T16:41:48.948Z,50.10
2019-04-11T16:44:35.228Z,50.60
2019-04-11T16:47:23.713Z,50.90
2019-04-11T16:49:56.768Z,50.60
2019-04-11T16:52:23.931Z,50.40
2019-04-11T16:54:52.340Z,50.50
2019-04-11T16:57:21.077Z,50.70
2019-04-11T16:59:50.294Z,51.20
2019-04-11T17:02:38.028Z,51.80
2019-04-11T17:05:08.207Z,52.00
2019-04-11T17:07:41.226Z,52.70
2019-04-11T17:10:11.464Z,52.70
2019-04-11T17:12:39.946Z,52.60
2019-04-11T17:15:08.900Z,52.70
2019-04-11T17:17:37.337Z,52.70
2019-04-11T17:20:06.988Z,52.90
2019-04-11T17:22:35.384Z,53.00
2019-04-11T17:25:04.543Z,53.40
2019-04-11T17:27:33.034Z,53.60
2019-04-11T17:30:01.456Z,53.80
2019-04-11T17:32:29.856Z,54.20
2019-04-11T17:35:01.328Z,54.00
2019-04-11T17:37:30.912Z,53.90
2019-04-11T17:39:58.915Z,53.90
2019-04-11T17:42:27.326Z,53.80
2019-04-11T17:44:55.752Z,53.70
2019-04-11T17:47:26.807Z,53.50
2019-04-11T17:49:54.295Z,53.70
2019-04-11T17:52:22.729Z,54.20
2019-04-11T17:54:51.899Z,54.90
2019-04-11T17:57:21.316Z,55.50
2019-04-11T17:59:49.728Z,56.20
2019-04-11T18:02:18.139Z,56.70
2019-04-11T18:04:48.039Z,57.00
2019-04-11T18:07:17.625Z,57.40
2019-04-11T18:09:46.459Z,57.80
2019-04-11T18:12:14.914Z,58.20
2019-04-11T18:14:43.326Z,58.30
2019-04-11T18:17:11.726Z,58.60
2019-04-11T18:19:40.136Z,59.00
2019-04-11T18:22:13.208Z,59.50
2019-04-11T18:24:39.099Z,60.00
2019-04-11T18:27:07.569Z,60.70
2019-04-11T18:29:35.971Z,61.10
2019-04-11T18:32:04.574Z,61.70
2019-04-11T18:34:32.971Z,62.30
2019-04-11T18:37:02.195Z,62.60
2019-04-11T18:39:31.155Z,62.90
2019-04-11T18:41:59.667Z,63.10
2019-04-11T18:44:28.208Z,63.10
2019-04-11T18:46:57.726Z,63.30
2019-04-11T18:49:26.093Z,63.50
2019-04-11T18:51:54.916Z,63.50
2019-04-11T18:54:23.618Z,63.40
2019-04-11T18:57:04.579Z,63.20
2019-04-11T18:59:34.011Z,63.10
2019-04-11T19:02:03.234Z,63.40
2019-04-11T19:04:32.863Z,63.60
2019-04-11T19:07:01.495Z,63.80
2019-04-11T19:09:30.634Z,64.00
2019-04-11T19:11:59.312Z,64.30
2019-04-11T19:14:27.787Z,64.50
2019-04-11T19:16:56.194Z,64.80
2019-04-11T19:19:27.313Z,65.20
2019-04-11T19:21:55.014Z,65.40
2019-04-11T19:24:34.831Z,65.60
2019-04-11T19:26:53.676Z,65.80
2019-04-11T19:29:24.754Z,65.80
2019-04-11T19:31:52.287Z,65.60
2019-04-11T19:34:20.682Z,65.40
2019-04-11T19:36:49.091Z,65.50
2019-04-11T19:39:18.363Z,65.50
2019-04-11T19:42:09.031Z,65.60
2019-04-11T19:44:36.480Z,65.50
2019-04-11T19:47:04.932Z,65.90
2019-04-11T19:49:33.341Z,65.40
2019-04-11T19:52:01.768Z,66.40
2019-04-11T19:54:32.707Z,66.70
2019-04-11T19:57:02.007Z,67.00
2019-04-11T19:59:30.398Z,67.30
2019-04-11T20:01:59.106Z,67.80
2019-04-11T20:04:27.511Z,68.10
2019-04-11T20:06:55.950Z,68.20
2019-04-11T20:09:24.569Z,68.60
2019-04-11T20:11:53.408Z,68.90
2019-04-11T20:14:21.812Z,69.00
2019-04-11T20:16:52.008Z,69.20
2019-04-11T20:19:20.559Z,69.30
2019-04-11T20:21:48.967Z,69.50
2019-04-11T20:24:17.441Z,69.60
2019-04-11T20:26:49.763Z,69.70
2019-04-11T20:29:16.293Z,69.80
2019-04-11T20:31:44.687Z,70.00
2019-04-11T20:34:13.099Z,69.90
2019-04-11T20:36:41.874Z,70.00
2019-04-11T20:39:14.911Z,70.10
2019-04-11T20:41:40.676Z,70.40
2019-04-11T20:44:09.323Z,71.00
2019-04-11T20:46:37.725Z,71.40
2019-04-11T20:49:06.286Z,71.70
2019-04-11T20:51:34.747Z,72.00
2019-04-11T20:54:07.052Z,72.20
2019-04-11T20:56:33.570Z,72.50
2019-04-11T20:59:01.992Z,72.80
2019-04-11T21:01:30.406Z,73.30
2019-04-11T21:04:00.371Z,73.40
2019-04-11T21:06:31.670Z,73.90
2019-04-11T21:09:02.890Z,74.60
2019-04-11T21:11:29.182Z,75.20
2019-04-11T21:13:57.577Z,76.10
2019-04-11T21:16:25.975Z,77.30
2019-04-11T21:18:55.366Z,78.00
2019-04-11T21:21:25.199Z,78.60
2019-04-11T21:23:53.993Z,79.30
2019-04-11T21:26:22.393Z,80.00
2019-04-11T21:28:50.819Z,80.60
2019-04-11T21:31:19.243Z,81.40
2019-04-11T21:33:47.717Z,82.40
2019-04-11T21:36:16.134Z,83.30
2019-04-11T21:38:44.546Z,84.90
2019-04-11T21:41:12.947Z,86.00
2019-04-11T21:43:41.439Z,87.30
2019-04-11T21:46:09.902Z,87.50
2019-04-11T21:48:38.555Z,88.60
2019-04-11T21:51:11.111Z,89.10
2019-04-11T21:53:37.119Z,90.10
2019-04-11T21:56:05.562Z,90.00
2019-04-11T21:58:33.957Z,90.30
2019-04-11T22:01:05.617Z,90.70
2019-04-11T22:03:34.134Z,90.80
2019-04-11T22:06:02.580Z,91.40
2019-04-11T22:08:34.064Z,91.70
2019-04-11T22:11:03.102Z,92.00
2019-04-11T22:13:31.573Z,92.50
2019-04-11T22:16:00.036Z,94.00
2019-04-11T22:18:28.489Z,94.00
2019-04-11T22:20:57.066Z,94.70
2019-04-11T22:23:25.562Z,93.30
2019-04-11T22:25:53.946Z,93.60
2019-04-11T22:28:24.934Z,93.90
2019-04-11T22:30:54.873Z,94.20
2019-04-11T22:33:36.079Z,94.50
2019-04-11T22:36:04.640Z,94.60
2019-04-11T22:38:33.198Z,94.80
2019-04-11T22:41:02.628Z,95.00
2019-04-11T22:43:31.188Z,95.20
2019-04-11T22:45:59.645Z,95.40
2019-04-11T22:48:28.147Z,95.50
2019-04-11T22:50:56.527Z,96.00
2019-04-11T22:53:24.924Z,95.80
2019-04-11T22:55:53.334Z,95.90
2019-04-11T22:58:21.751Z,96.00
2019-04-11T23:00:51.648Z,96.20
2019-04-11T23:03:24.446Z,96.60
2019-04-11T23:05:52.930Z,96.40
2019-04-11T23:08:21.312Z,96.60
2019-04-11T23:10:49.790Z,96.70
2019-04-11T23:13:18.213Z,97.10
2019-04-11T23:15:46.643Z,98.30
2019-04-11T23:18:15.127Z,97.10
2019-04-11T23:20:44.202Z,97.30
2019-04-11T23:23:13.498Z,97.10
2019-04-11T23:25:42.527Z,97.20
2019-04-11T23:28:10.937Z,97.30
2019-04-11T23:30:39.340Z,97.30
2019-04-11T23:33:07.776Z,97.40
2019-04-11T23:35:36.174Z,97.30
2019-04-11T23:38:04.645Z,97.40
2019-04-11T23:40:33.145Z,97.50
2019-04-11T23:43:01.563Z,97.60
2019-04-11T23:45:30.258Z,97.70
2019-04-11T23:47:58.715Z,98.20
2019-04-11T23:50:27.123Z,98.00
2019-04-11T23:52:57.946Z,98.10
2019-04-11T23:55:27.955Z,98.10
2019-04-11T23:58:15.144Z,98.20
